Time;durP1;ratioP1;P1;durP2;ratioP2;P2;SDS_P1;SDS_P2;PMS_P1;PMS_P2;Temp;Humidity;BMP_temperature;BMP_pressure;BME280_temperature;BME280_humidity;BME280_pressure;Samples;Min_cycle;Max_cycle;Signal;HPM_P1;HPM_P2
2022/06/13 00:02:15;;;;;;;11.43;8.30;;;15.90;99.90;;;;;;5060469;28;20052;-85
2022/06/13 00:05:04;;;;;;;10.63;9.23;;;15.90;99.90;;;;;;5074131;28;20040;-86
2022/06/13 00:07:51;;;;;;;14.15;10.43;;;15.80;99.90;;;;;;5061480;28;20649;-86
2022/06/13 00:10:38;;;;;;;12.77;9.30;;;15.80;99.90;;;;;;5071637;28;20468;-86
2022/06/13 00:13:26;;;;;;;11.95;9.00;;;15.80;99.90;;;;;;5073751;28;20120;-83
2022/06/13 00:16:14;;;;;;;10.93;8.20;;;15.80;99.90;;;;;;5069452;28;20036;-85
2022/06/13 00:19:02;;;;;;;11.55;9.40;;;15.70;99.90;;;;;;5056902;28;20104;-86
2022/06/13 00:21:54;;;;;;;15.45;10.10;;;15.80;99.90;;;;;;5073719;28;20052;-84
2022/06/13 00:24:41;;;;;;;23.42;11.38;;;15.80;99.90;;;;;;5076063;28;20330;-83
2022/06/13 00:27:31;;;;;;;14.30;10.57;;;15.90;99.90;;;;;;5070430;28;20465;-84
2022/06/13 00:30:18;;;;;;;18.98;10.38;;;16.00;99.90;;;;;;5073569;28;20174;-83
2022/06/13 00:33:05;;;;;;;14.70;10.23;;;16.00;99.90;;;;;;5071309;28;20051;-83
2022/06/13 00:35:53;;;;;;;12.43;9.00;;;16.10;99.90;;;;;;5071931;28;20381;-84
2022/06/13 00:38:45;;;;;;;15.35;8.38;;;16.00;99.90;;;;;;5074726;28;20123;-84
2022/06/13 00:41:39;;;;;;;10.88;8.38;;;15.80;99.90;;;;;;5071042;28;20144;-84
2022/06/13 00:44:35;;;;;;;13.52;8.32;;;15.70;99.90;;;;;;5070514;28;20040;-85
2022/06/13 00:47:22;;;;;;;17.88;10.52;;;15.70;99.90;;;;;;5075370;28;20161;-83
2022/06/13 00:50:14;;;;;;;11.95;9.15;;;15.80;99.90;;;;;;5073759;28;20053;-83
2022/06/13 00:53:09;;;;;;;13.23;9.93;;;15.80;99.90;;;;;;5062635;28;20052;-84
2022/06/13 00:56:01;;;;;;;17.33;10.30;;;15.80;99.90;;;;;;5062861;28;20098;-86
2022/06/13 00:58:55;;;;;;;17.90;10.32;;;15.80;99.90;;;;;;5074942;28;20048;-85
2022/06/13 01:01:43;;;;;;;19.30;10.90;;;15.70;99.90;;;;;;5073156;28;20056;-86
2022/06/13 01:04:33;;;;;;;12.00;10.23;;;15.70;99.90;;;;;;5072293;28;20052;-86
2022/06/13 01:07:21;;;;;;;15.25;10.30;;;15.70;99.90;;;;;;5075848;28;20051;-87
2022/06/13 01:13:15;;;;;;;21.08;12.00;;;15.80;99.90;;;;;;5074420;28;20051;-86
2022/06/13 01:16:25;;;;;;;17.52;12.02;;;15.90;99.90;;;;;;5067567;28;20048;-85
2022/06/13 01:19:24;;;;;;;19.20;11.70;;;15.90;99.90;;;;;;5071706;28;20333;-86
2022/06/13 01:22:33;;;;;;;13.65;11.63;;;15.80;99.90;;;;;;5066018;28;20079;-85
2022/06/13 01:25:34;;;;;;;14.90;11.30;;;15.70;99.90;;;;;;5070987;28;20072;-88
2022/06/13 01:28:32;;;;;;;15.25;10.82;;;15.80;99.90;;;;;;5055781;28;20044;-86
2022/06/13 01:31:38;;;;;;;13.52;10.43;;;15.80;99.90;;;;;;5068069;28;20128;-88
2022/06/13 01:34:46;;;;;;;15.20;9.75;;;15.80;99.90;;;;;;5066904;28;20044;-88
2022/06/13 01:38:11;;;;;;;11.60;9.48;;;15.70;99.90;;;;;;5069894;28;20048;-87
2022/06/13 01:41:21;;;;;;;13.35;8.93;;;15.70;99.90;;;;;;5052509;28;20437;-87
2022/06/13 01:44:49;;;;;;;15.45;9.32;;;15.60;99.90;;;;;;5077744;28;20048;-87
2022/06/13 01:47:45;;;;;;;13.27;9.73;;;15.60;99.90;;;;;;5046047;28;20106;-85
2022/06/13 01:50:40;;;;;;;11.02;8.80;;;15.60;99.90;;;;;;5071670;28;20044;-86
2022/06/13 01:54:00;;;;;;;16.98;9.55;;;15.50;99.90;;;;;;5072223;28;20138;-86
2022/06/13 01:57:19;;;;;;;12.98;9.77;;;15.50;99.90;;;;;;5052269;28;20170;-88
2022/06/13 02:00:10;;;;;;;17.42;9.40;;;15.50;99.90;;;;;;5049770;28;20040;-87
2022/06/13 02:03:07;;;;;;;13.48;9.60;;;15.50;99.90;;;;;;5061989;28;20045;-87
2022/06/13 02:06:19;;;;;;;13.95;10.85;;;15.50;99.90;;;;;;5058842;28;20193;-85
2022/06/13 02:09:29;;;;;;;16.23;12.65;;;15.50;99.90;;;;;;5080952;28;20044;-89
2022/06/13 02:12:22;;;;;;;17.92;14.35;;;15.50;99.90;;;;;;5073075;28;20350;-89
2022/06/13 02:15:11;;;;;;;;;;;15.60;99.90;;;;;;5057745;28;20072;-90
2022/06/13 02:18:05;;;;;;;22.90;15.45;;;15.60;99.90;;;;;;5086716;28;19920;-90
2022/06/13 02:20:58;;;;;;;24.27;18.00;;;15.60;99.90;;;;;;5079320;28;20080;-87
2022/06/13 02:23:51;;;;;;;26.35;18.83;;;15.60;99.90;;;;;;5076513;28;20052;-87
2022/06/13 02:26:41;;;;;;;31.08;20.13;;;15.60;99.90;;;;;;5072863;28;20049;-89
2022/06/13 02:29:49;;;;;;;33.85;21.88;;;15.70;99.90;;;;;;5069416;28;20049;-89
2022/06/13 02:32:57;;;;;;;33.33;22.60;;;15.70;99.90;;;;;;5072391;28;20056;-88
2022/06/13 02:35:49;;;;;;;35.15;22.00;;;15.70;99.90;;;;;;5076904;28;20056;-88
2022/06/13 02:38:50;;;;;;;36.33;22.70;;;15.70;99.90;;;;;;5075971;28;20063;-87
2022/06/13 02:41:45;;;;;;;32.55;21.20;;;15.70;99.90;;;;;;5075125;28;20068;-90
2022/06/13 02:44:36;;;;;;;26.80;19.60;;;15.70;99.90;;;;;;5073174;28;20052;-87
2022/06/13 02:47:33;;;;;;;29.50;20.17;;;15.70;99.90;;;;;;5072079;28;20102;-88
2022/06/13 02:50:26;;;;;;;28.15;19.02;;;15.60;99.90;;;;;;5074604;28;20514;-88
2022/06/13 02:53:25;;;;;;;26.25;18.77;;;15.70;99.90;;;;;;5073574;28;20174;-88
2022/06/13 03:00:19;;;;;;;19.50;16.08;;;15.70;99.90;;;;;;5077315;28;20429;-88
2022/06/13 03:03:15;;;;;;;26.40;16.13;;;15.70;99.90;;;;;;5070582;28;20036;-87
2022/06/13 03:06:08;;;;;;;21.08;15.85;;;15.70;99.90;;;;;;5075417;28;20380;-90
2022/06/13 03:09:15;;;;;;;20.73;15.02;;;15.60;99.90;;;;;;5078241;28;20098;-89
2022/06/13 03:12:04;;;;;;;19.77;13.88;;;15.60;99.90;;;;;;5077012;28;20136;-89
2022/06/13 03:15:06;;;;;;;20.08;13.70;;;15.60;99.90;;;;;;5073029;28;20072;-88
2022/06/13 03:18:05;;;;;;;20.08;12.77;;;15.50;99.90;;;;;;5070059;28;20048;-89
2022/06/13 03:21:10;;;;;;;19.23;11.02;;;15.50;99.90;;;;;;5077907;28;20101;-88
2022/06/13 03:24:05;;;;;;;12.45;10.57;;;15.50;99.90;;;;;;5071263;28;20055;-90
2022/06/13 03:27:01;;;;;;;13.82;9.23;;;15.40;99.90;;;;;;5073571;28;20059;-88
2022/06/13 03:29:53;;;;;;;12.77;7.40;;;15.40;99.90;;;;;;5078572;28;20110;-90
2022/06/13 03:36:17;;;;;;;8.30;5.63;;;15.10;99.90;;;;;;5076344;28;20404;-89
2022/06/13 03:39:15;;;;;;;8.85;5.22;;;15.00;99.90;;;;;;5074219;28;20036;-87
2022/06/13 03:42:12;;;;;;;10.80;5.03;;;15.00;99.90;;;;;;5069392;28;20052;-88
2022/06/13 03:45:16;;;;;;;12.98;5.65;;;14.90;99.90;;;;;;5074772;28;20404;-87
2022/06/13 03:48:29;;;;;;;11.38;5.57;;;14.80;99.90;;;;;;5070566;28;20435;-89
2022/06/13 03:51:25;;;;;;;10.07;5.35;;;14.80;99.90;;;;;;5072910;28;20043;-88
2022/06/13 03:54:19;;;;;;;11.65;5.40;;;14.70;99.90;;;;;;5075092;28;20120;-90
2022/06/13 03:57:23;;;;;;;9.35;4.47;;;14.70;99.90;;;;;;5076268;28;20141;-89
2022/06/13 04:00:19;;;;;;;6.05;4.35;;;14.70;99.90;;;;;;5078561;28;20170;-88
2022/06/13 04:07:17;;;;;;;9.43;5.03;;;14.50;99.90;;;;;;5063145;28;20320;-90
2022/06/13 04:10:15;;;;;;;9.32;4.53;;;14.40;99.90;;;;;;5061506;28;20173;-90
2022/06/13 04:13:24;;;;;;;10.40;4.82;;;14.40;99.90;;;;;;5055379;28;20045;-88
2022/06/13 05:07:23;;;;;;;15.77;5.28;;;13.60;99.90;;;;;;5085538;28;20045;-87
2022/06/13 05:18:58;;;;;;;17.25;5.22;;;13.90;99.90;;;;;;4977114;28;20027;-84
2022/06/13 05:22:02;;;;;;;15.77;5.40;;;14.00;99.90;;;;;;4961590;28;20194;-87
2022/06/13 05:24:57;;;;;;;19.30;5.80;;;14.10;99.90;;;;;;5012433;28;20439;-89
2022/06/13 05:27:44;;;;;;;21.27;5.60;;;14.10;99.90;;;;;;5038848;28;20446;-88
2022/06/13 05:30:31;;;;;;;12.43;4.97;;;14.20;99.90;;;;;;5031698;28;20454;-87
2022/06/13 05:33:29;;;;;;;9.75;4.15;;;14.30;99.90;;;;;;5025750;28;20057;-87
2022/06/13 05:36:21;;;;;;;13.85;4.80;;;14.40;99.90;;;;;;5020740;28;20069;-88
2022/06/13 05:39:08;;;;;;;12.50;3.80;;;14.40;99.90;;;;;;5029562;28;20486;-84
2022/06/13 05:41:56;;;;;;;14.73;4.63;;;14.40;99.90;;;;;;5023024;28;20316;-85
2022/06/13 05:44:43;;;;;;;10.23;4.22;;;14.40;99.90;;;;;;5044306;28;20132;-86
2022/06/13 05:47:30;;;;;;;11.05;3.88;;;14.40;99.90;;;;;;5077689;28;20045;-83
2022/06/13 05:50:22;;;;;;;9.18;4.55;;;14.40;99.90;;;;;;5074963;28;20064;-84
2022/06/13 05:53:12;;;;;;;14.02;4.53;;;14.50;99.90;;;;;;5093230;28;20098;-85
2022/06/13 05:56:02;;;;;;;17.48;4.93;;;14.50;99.90;;;;;;5081799;28;20036;-86
2022/06/13 05:58:52;;;;;;;17.67;4.07;;;14.60;99.90;;;;;;5075348;28;20080;-89
2022/06/13 06:01:39;;;;;;;16.42;4.78;;;14.60;99.90;;;;;;5073322;28;20049;-86
2022/06/13 06:04:29;;;;;;;12.63;4.70;;;14.70;99.90;;;;;;5077458;28;20059;-86
2022/06/13 06:07:18;;;;;;;12.70;4.63;;;14.80;99.90;;;;;;5095430;28;20071;-89
2022/06/13 06:10:07;;;;;;;16.02;4.45;;;14.90;99.90;;;;;;5099469;28;20052;-90
2022/06/13 06:12:54;;;;;;;13.82;3.63;;;15.00;99.90;;;;;;5095186;28;20365;-87
2022/06/13 06:15:43;;;;;;;14.93;3.95;;;15.00;99.90;;;;;;5090974;28;20088;-85
2022/06/13 06:23:16;;;;;;;16.20;4.53;;;15.20;99.90;;;;;;5092374;28;20040;-91
2022/06/13 07:53:52;;;;;;;8.35;2.33;;;22.40;97.00;;;;;;4937545;29;20146;-91
2022/06/13 08:05:54;;;;;;;11.10;2.88;;;23.30;90.90;;;;;;4934316;29;20067;-85
2022/06/13 08:13:08;;;;;;;9.77;2.97;;;23.70;78.30;;;;;;4939902;29;20087;-85
2022/06/13 08:20:59;;;;;;;10.68;2.70;;;23.40;72.90;;;;;;4948049;29;20508;-88
2022/06/13 08:43:33;;;;;;;6.40;2.40;;;24.80;76.80;;;;;;5060106;28;20588;-89
2022/06/13 08:50:51;;;;;;;8.63;2.40;;;25.60;65.20;;;;;;5053055;28;20044;-88
2022/06/13 08:54:43;;;;;;;7.70;2.40;;;26.10;69.90;;;;;;5054077;28;20096;-90
2022/06/13 08:58:14;;;;;;;8.35;2.40;;;26.70;63.40;;;;;;5053853;28;20044;-87
2022/06/13 09:18:16;;;;;;;10.10;2.97;;;24.40;62.40;;;;;;4883237;29;20056;-91
2022/06/13 09:21:43;;;;;;;7.82;2.55;;;24.70;65.40;;;;;;4883082;29;20160;-89
2022/06/13 09:25:40;;;;;;;9.48;2.83;;;25.40;65.80;;;;;;4843897;29;20131;-90
2022/06/13 09:29:01;;;;;;;10.43;2.95;;;25.40;67.60;;;;;;4996920;28;20050;-89
2022/06/13 09:32:20;;;;;;;4.38;1.80;;;25.90;63.20;;;;;;5002116;28;20042;-90
2022/06/13 09:39:26;;;;;;;5.63;2.20;;;26.70;55.20;;;;;;5016497;28;20053;-91
2022/06/13 09:42:38;;;;;;;8.68;2.80;;;26.30;56.20;;;;;;5016851;28;20053;-86
2022/06/13 09:46:19;;;;;;;6.35;2.08;;;26.30;59.40;;;;;;5010749;28;20121;-90
2022/06/13 09:49:39;;;;;;;8.70;2.60;;;27.10;59.20;;;;;;5012051;28;20123;-88
2022/06/13 09:52:50;;;;;;;8.20;2.45;;;27.50;54.50;;;;;;5009405;28;20343;-90
2022/06/13 09:55:52;;;;;;;8.30;1.83;;;28.50;53.30;;;;;;5011513;28;20097;-90
2022/06/13 09:59:14;;;;;;;4.30;1.58;;;28.90;49.90;;;;;;5014649;28;20046;-90
2022/06/13 10:02:12;;;;;;;7.40;1.90;;;28.30;51.40;;;;;;5011038;28;20109;-91
2022/06/13 10:05:27;;;;;;;6.38;1.70;;;28.10;47.10;;;;;;4997055;28;20143;-83
2022/06/13 10:08:20;;;;;;;6.30;2.17;;;27.50;49.80;;;;;;5006490;28;20052;-87
2022/06/13 10:11:42;;;;;;;8.07;2.10;;;27.30;54.70;;;;;;5008966;28;20439;-88
2022/06/13 10:14:48;;;;;;;6.78;2.10;;;28.20;53.10;;;;;;5009283;28;20050;-84
2022/06/13 10:17:49;;;;;;;6.32;1.65;;;28.40;49.40;;;;;;5008322;28;20056;-86
2022/06/13 10:21:18;;;;;;;6.97;1.55;;;29.20;48.60;;;;;;4985458;28;20178;-89
2022/06/13 10:24:14;;;;;;;6.93;1.80;;;29.20;49.30;;;;;;4920338;29;20051;-90
2022/06/13 10:27:27;;;;;;;6.50;1.80;;;29.10;43.70;;;;;;5005000;28;20159;-90
2022/06/13 10:30:26;;;;;;;7.45;1.73;;;28.90;47.20;;;;;;5010366;28;20048;-88
2022/06/13 10:33:48;;;;;;;5.60;1.30;;;29.20;45.50;;;;;;5002646;28;20045;-88
2022/06/13 10:36:45;;;;;;;5.78;1.60;;;29.60;39.90;;;;;;5007793;28;20054;-90
2022/06/13 10:39:32;;;;;;;3.72;1.52;;;29.80;41.50;;;;;;5010785;28;20116;-88
2022/06/13 10:42:26;;;;;;;5.05;1.45;;;29.30;39.10;;;;;;5009928;28;20451;-90
2022/06/13 10:45:15;;;;;;;5.15;1.40;;;29.00;37.90;;;;;;5010754;28;20038;-91
2022/06/13 10:48:11;;;;;;;4.93;1.50;;;29.10;43.60;;;;;;5010661;28;20049;-89
2022/06/13 10:51:03;;;;;;;5.60;1.38;;;29.70;38.00;;;;;;4998944;28;20058;-88
2022/06/13 10:54:08;;;;;;;5.65;1.25;;;29.80;40.00;;;;;;5005128;28;20716;-91
2022/06/13 10:57:02;;;;;;;3.72;1.63;;;30.10;37.70;;;;;;5015347;28;20033;-84
2022/06/13 11:00:14;;;;;;;3.97;1.60;;;29.40;40.40;;;;;;5027870;28;20049;-84
2022/06/13 11:03:17;;;;;;;5.15;1.70;;;29.50;44.00;;;;;;5026333;28;20038;-80
2022/06/13 11:11:37;;;;;;;5.45;1.40;;;30.80;39.60;;;;;;5538945;22;20067;-85
2022/06/13 11:22:37;;;;;;;5.35;1.30;;;30.90;39.70;;;;;;5069977;28;20025;-84
2022/06/13 11:24:52;;;;;;;4.00;1.35;;;30.20;39.00;;;;;;5047690;28;20046;-86
2022/06/13 11:28:01;;;;;;;5.13;1.30;;;29.70;41.00;;;;;;5047766;28;20051;-91
2022/06/13 11:30:50;;;;;;;3.80;1.30;;;29.90;38.40;;;;;;5055106;28;20576;-86
2022/06/13 11:33:40;;;;;;;2.47;1.10;;;30.10;41.80;;;;;;5055358;28;20047;-87
2022/06/13 11:36:30;;;;;;;6.97;1.33;;;30.70;36.70;;;;;;5058894;28;20056;-85
2022/06/13 11:39:49;;;;;;;6.35;1.70;;;31.20;40.00;;;;;;5057104;28;20056;-86
2022/06/13 11:42:37;;;;;;;5.28;1.20;;;31.40;39.30;;;;;;5053683;28;20263;-89
2022/06/13 11:45:27;;;;;;;6.45;1.35;;;30.90;39.20;;;;;;5055965;28;20052;-91
2022/06/13 11:48:17;;;;;;;6.05;1.70;;;30.80;35.80;;;;;;5064139;28;20142;-90
2022/06/13 11:51:53;;;;;;;5.22;1.42;;;30.90;37.50;;;;;;5060560;28;20324;-86
2022/06/13 11:54:47;;;;;;;3.60;1.00;;;29.80;35.60;;;;;;5024101;28;20053;-92
2022/06/13 11:57:40;;;;;;;3.25;1.38;;;30.00;39.90;;;;;;5056964;28;20049;-90
2022/06/13 12:00:40;;;;;;;4.07;1.40;;;29.80;41.50;;;;;;5050964;28;20037;-90
2022/06/13 12:03:28;;;;;;;6.38;1.67;;;30.10;40.70;;;;;;5051905;28;20118;-87
2022/06/13 12:06:17;;;;;;;2.28;1.00;;;29.90;43.30;;;;;;5056496;28;20065;-87
2022/06/13 12:09:15;;;;;;;2.70;1.02;;;30.70;35.70;;;;;;5054186;28;20390;-87
2022/06/13 12:12:07;;;;;;;5.15;1.20;;;29.90;35.00;;;;;;5049167;28;20160;-90
2022/06/13 12:14:59;;;;;;;4.45;1.05;;;27.80;37.40;;;;;;5050915;28;20114;-90
2022/06/13 12:26:34;;;;;;;3.78;1.20;;;30.30;39.10;;;;;;5053175;28;20029;-87
2022/06/13 12:29:24;;;;;;;6.68;1.38;;;30.60;40.60;;;;;;5055399;28;20044;-85
2022/06/13 12:32:29;;;;;;;3.75;1.48;;;31.20;38.70;;;;;;5055823;28;20044;-85
2022/06/13 12:35:28;;;;;;;7.35;1.85;;;31.90;36.20;;;;;;5053971;28;20394;-91
2022/06/13 12:38:41;;;;;;;1.83;0.95;;;31.60;32.50;;;;;;5055236;28;20056;-86
2022/06/13 12:41:58;;;;;;;4.05;1.15;;;31.70;34.00;;;;;;5050989;28;20107;-86
2022/06/13 12:45:21;;;;;;;3.58;1.35;;;31.90;35.90;;;;;;5052010;28;20045;-86
2022/06/13 12:48:38;;;;;;;3.83;1.60;;;30.80;36.30;;;;;;5009483;28;20450;-92
2022/06/13 12:51:27;;;;;;;4.30;1.42;;;29.90;37.60;;;;;;5049995;28;20044;-87
2022/06/13 12:54:32;;;;;;;2.53;0.93;;;29.30;40.80;;;;;;5053791;28;20163;-90
2022/06/13 12:57:27;;;;;;;3.65;1.40;;;30.10;40.10;;;;;;5050736;28;20037;-93
2022/06/13 13:00:41;;;;;;;6.05;1.40;;;31.40;34.60;;;;;;5045157;28;20133;-89
2022/06/13 13:03:48;;;;;;;4.55;1.17;;;31.20;34.80;;;;;;5061566;28;20045;-90
2022/06/13 13:06:53;;;;;;;3.53;1.02;;;31.50;37.50;;;;;;5054602;28;20065;-90
2022/06/13 13:10:20;;;;;;;3.55;1.35;;;32.10;36.00;;;;;;5058588;28;20048;-91
2022/06/13 13:13:44;;;;;;;4.22;1.45;;;30.00;37.30;;;;;;5050924;28;20045;-91
2022/06/13 13:16:56;;;;;;;3.85;1.30;;;29.90;40.00;;;;;;5060418;28;20063;-91
2022/06/13 13:19:53;;;;;;;2.88;0.85;;;30.10;38.20;;;;;;5060968;28;20052;-89
2022/06/13 13:22:52;;;;;;;8.10;1.40;;;31.50;34.70;;;;;;5053513;28;20370;-91
2022/06/13 13:26:26;;;;;;;5.78;1.33;;;32.60;34.50;;;;;;5047731;28;20131;-90
2022/06/13 13:29:19;;;;;;;3.85;1.08;;;31.20;34.00;;;;;;5057898;28;20051;-87
2022/06/13 13:32:24;;;;;;;5.93;1.00;;;30.80;37.00;;;;;;5054387;28;20370;-88
2022/06/13 13:35:33;;;;;;;3.90;1.50;;;30.10;37.00;;;;;;5053510;28;20040;-83
2022/06/13 13:38:47;;;;;;;4.05;1.00;;;30.40;36.40;;;;;;5054766;28;20049;-87
2022/06/13 13:41:41;;;;;;;4.07;1.25;;;29.50;36.70;;;;;;5055288;28;20147;-89
2022/06/13 13:44:35;;;;;;;6.78;1.50;;;28.30;36.70;;;;;;5055150;28;20059;-85
2022/06/13 13:47:23;;;;;;;2.50;1.27;;;26.80;42.20;;;;;;5056023;28;20056;-91
2022/06/13 13:50:22;;;;;;;4.20;1.10;;;27.50;41.50;;;;;;5045468;28;20045;-89
2022/06/13 13:53:15;;;;;;;3.05;1.10;;;28.40;36.50;;;;;;5060281;28;20373;-90
2022/06/13 13:56:28;;;;;;;2.75;1.23;;;29.30;34.10;;;;;;5051793;28;20807;-88
2022/06/13 13:59:20;;;;;;;4.82;1.27;;;29.30;34.80;;;;;;5050524;28;20052;-88
2022/06/13 14:02:47;;;;;;;2.83;1.25;;;29.70;36.00;;;;;;5053907;28;20063;-86
2022/06/13 14:05:44;;;;;;;6.70;1.40;;;30.10;36.90;;;;;;5054486;28;20461;-89
2022/06/13 14:08:36;;;;;;;2.85;1.00;;;30.30;38.40;;;;;;5050418;28;20095;-86
2022/06/13 14:11:25;;;;;;;3.80;1.42;;;30.60;31.40;;;;;;5054764;28;20045;-89
2022/06/13 14:14:13;;;;;;;1.85;1.23;;;30.10;36.40;;;;;;5052323;28;20151;-87
2022/06/13 14:17:00;;;;;;;5.65;1.20;;;29.90;35.60;;;;;;5053489;28;20116;-88
2022/06/13 14:19:58;;;;;;;4.25;1.35;;;29.60;35.80;;;;;;5052268;28;20045;-88
2022/06/13 14:22:50;;;;;;;3.20;0.93;;;29.70;34.30;;;;;;5051518;28;20064;-87
2022/06/13 14:25:42;;;;;;;6.70;1.08;;;29.50;33.80;;;;;;5052948;28;20045;-84
2022/06/13 14:28:49;;;;;;;2.10;1.05;;;29.20;37.20;;;;;;5052428;28;20056;-88
2022/06/13 14:32:05;;;;;;;2.13;1.30;;;28.10;38.90;;;;;;5056238;28;20048;-91
2022/06/13 14:35:13;;;;;;;4.65;1.40;;;26.70;42.00;;;;;;5044253;28;20159;-88
2022/06/13 14:38:02;;;;;;;3.80;1.50;;;26.20;43.20;;;;;;5057132;28;20052;-86
2022/06/13 14:40:57;;;;;;;5.00;1.58;;;26.50;39.30;;;;;;5056910;28;20049;-85
2022/06/13 14:43:58;;;;;;;2.92;1.10;;;27.00;41.10;;;;;;5059386;28;20060;-86
2022/06/13 14:47:19;;;;;;;4.75;1.27;;;27.30;38.30;;;;;;5056348;28;20037;-87
2022/06/13 14:50:07;;;;;;;4.55;1.48;;;26.90;41.90;;;;;;5051236;28;20128;-83
2022/06/13 14:53:26;;;;;;;3.53;1.50;;;26.50;38.20;;;;;;5059900;28;20045;-86
2022/06/13 14:56:14;;;;;;;4.20;1.55;;;25.40;43.40;;;;;;5061825;28;20049;-86
2022/06/13 14:59:09;;;;;;;4.07;1.10;;;24.50;45.30;;;;;;5050473;28;20060;-84
2022/06/13 15:02:15;;;;;;;2.92;1.20;;;24.20;45.70;;;;;;5050843;28;20419;-83
2022/06/13 15:05:05;;;;;;;1.67;1.10;;;24.60;46.30;;;;;;5050193;28;20041;-85
2022/06/13 15:07:53;;;;;;;5.78;1.35;;;24.50;46.80;;;;;;5054764;28;20095;-86
2022/06/13 15:10:53;;;;;;;6.78;1.73;;;25.00;47.40;;;;;;5053792;28;20068;-86
2022/06/13 15:13:44;;;;;;;4.55;1.20;;;25.10;48.20;;;;;;5062107;28;20065;-85
2022/06/13 15:16:34;;;;;;;5.10;1.30;;;24.50;45.70;;;;;;5068110;28;20053;-82
2022/06/13 15:19:33;;;;;;;3.90;1.52;;;24.20;46.40;;;;;;5068727;28;21717;-86
2022/06/13 15:22:26;;;;;;;3.88;1.50;;;23.80;44.00;;;;;;5064779;28;20037;-83
2022/06/13 15:25:15;;;;;;;3.17;1.70;;;23.80;48.30;;;;;;5067016;28;20037;-81
2022/06/13 15:31:02;;;;;;;4.05;1.30;;;23.90;44.00;;;;;;5201381;22;20060;-87
2022/06/13 15:34:17;;;;;;;4.13;1.45;;;24.10;47.20;;;;;;5085350;28;20051;-88
2022/06/13 15:37:07;;;;;;;4.32;1.60;;;24.00;45.40;;;;;;5097319;28;20037;-86
2022/06/13 15:39:54;;;;;;;4.35;1.33;;;24.40;48.40;;;;;;5086801;28;20119;-88
2022/06/13 15:42:41;;;;;;;5.32;1.20;;;24.80;44.90;;;;;;5078382;28;20051;-87
2022/06/13 15:45:34;;;;;;;4.97;1.33;;;25.10;46.90;;;;;;5076767;28;20052;-86
2022/06/13 15:48:22;;;;;;;2.95;0.95;;;25.40;46.80;;;;;;5064408;28;20040;-86
2022/06/13 15:51:11;;;;;;;4.30;1.30;;;25.50;43.20;;;;;;5078651;28;20087;-90
2022/06/13 15:54:19;;;;;;;5.05;1.58;;;25.70;41.70;;;;;;5080376;28;20041;-84
2022/06/13 15:57:19;;;;;;;2.95;1.17;;;25.50;42.00;;;;;;5071987;28;20044;-88
2022/06/13 16:00:11;;;;;;;3.38;1.38;;;25.10;46.60;;;;;;5070656;28;20299;-87
2022/06/13 16:03:08;;;;;;;2.60;1.30;;;24.40;41.90;;;;;;5056926;28;20041;-88
2022/06/13 16:06:03;;;;;;;5.47;1.20;;;23.70;42.00;;;;;;5072268;28;20048;-86
2022/06/13 16:08:55;;;;;;;4.18;1.35;;;23.50;47.40;;;;;;5072354;28;20052;-84
2022/06/13 16:11:44;;;;;;;3.03;1.52;;;23.30;46.20;;;;;;5077650;28;20056;-86
2022/06/13 16:14:33;;;;;;;3.70;1.10;;;23.30;47.60;;;;;;5073381;28;20067;-82
2022/06/13 16:17:50;;;;;;;3.22;1.30;;;23.10;48.00;;;;;;5077904;28;20041;-88
2022/06/13 16:20:43;;;;;;;6.70;3.05;;;23.10;47.20;;;;;;5075188;28;20044;-88
2022/06/13 16:23:34;;;;;;;4.70;1.80;;;23.30;47.30;;;;;;5074645;28;20124;-87
2022/06/13 16:26:27;;;;;;;4.72;1.55;;;23.60;43.90;;;;;;5072066;28;20049;-87
2022/06/13 16:29:18;;;;;;;2.70;1.52;;;23.80;45.10;;;;;;5079745;28;20037;-84
2022/06/13 16:32:10;;;;;;;6.40;2.25;;;23.90;44.10;;;;;;5061766;28;20178;-89
2022/06/13 16:35:00;;;;;;;6.07;1.60;;;23.90;43.80;;;;;;5052724;28;20048;-84
2022/06/13 16:38:02;;;;;;;3.50;1.40;;;23.80;44.50;;;;;;5074534;28;20055;-84
2022/06/13 16:40:56;;;;;;;4.13;1.42;;;23.70;47.30;;;;;;5076251;28;20372;-86
2022/06/13 16:43:52;;;;;;;6.30;1.42;;;23.60;47.60;;;;;;5072208;28;20072;-86
2022/06/13 16:46:51;;;;;;;4.03;1.60;;;23.50;45.80;;;;;;5078968;28;20107;-84
2022/06/13 16:49:50;;;;;;;6.00;1.35;;;23.30;44.30;;;;;;5081668;28;20048;-85
2022/06/13 16:52:53;;;;;;;6.05;1.42;;;23.10;43.60;;;;;;5083806;28;20101;-82
2022/06/13 16:55:50;;;;;;;5.03;1.35;;;22.80;45.00;;;;;;5075792;28;20041;-88
2022/06/13 16:58:52;;;;;;;4.65;1.65;;;22.30;47.10;;;;;;5076916;28;20044;-85
2022/06/13 17:01:49;;;;;;;7.15;1.45;;;22.10;46.90;;;;;;5073184;28;20117;-86
2022/06/13 17:04:38;;;;;;;8.90;1.45;;;21.70;49.00;;;;;;5076470;28;20041;-85
2022/06/13 17:07:30;;;;;;;4.65;1.75;;;21.40;48.90;;;;;;5066720;28;20346;-84
2022/06/13 17:10:19;;;;;;;4.18;1.85;;;21.20;50.00;;;;;;5073149;28;20362;-85
2022/06/13 17:13:07;;;;;;;3.28;1.83;;;21.10;48.90;;;;;;5075601;28;20043;-85
2022/06/13 17:15:57;;;;;;;3.55;1.98;;;21.00;50.70;;;;;;5062418;28;20469;-85
2022/06/13 17:18:52;;;;;;;7.18;1.70;;;20.80;52.80;;;;;;5074034;28;20048;-86
2022/06/13 17:21:41;;;;;;;5.18;1.52;;;20.80;49.70;;;;;;5070778;28;20041;-84
2022/06/13 17:24:29;;;;;;;3.40;1.42;;;20.80;52.70;;;;;;5074369;28;20110;-84
2022/06/13 17:33:36;;;;;;;5.13;1.38;;;20.40;52.50;;;;;;5067612;28;20059;-84
2022/06/13 17:36:25;;;;;;;4.65;1.50;;;20.10;53.00;;;;;;5085068;28;20429;-85
2022/06/13 17:39:15;;;;;;;5.80;1.52;;;19.90;53.80;;;;;;5056087;28;20044;-85
2022/06/13 17:42:05;;;;;;;5.05;1.90;;;19.70;56.00;;;;;;5064953;28;20120;-84
2022/06/13 17:44:55;;;;;;;3.55;1.92;;;19.50;55.60;;;;;;5070456;28;20036;-85
2022/06/13 17:47:46;;;;;;;3.03;1.42;;;19.40;56.60;;;;;;5067487;28;20043;-86
2022/06/13 17:50:34;;;;;;;5.85;1.95;;;19.40;56.70;;;;;;5071164;28;20055;-84
2022/06/13 17:53:21;;;;;;;5.30;1.95;;;19.40;52.10;;;;;;5067996;28;20043;-85
2022/06/13 17:56:14;;;;;;;5.38;1.63;;;19.30;54.10;;;;;;5078193;28;20112;-86
2022/06/13 17:59:03;;;;;;;2.58;1.60;;;19.30;56.60;;;;;;5072295;28;20044;-84
2022/06/13 18:01:52;;;;;;;5.45;1.60;;;19.30;55.50;;;;;;5059810;28;20045;-84
2022/06/13 18:04:43;;;;;;;4.72;1.60;;;19.20;54.10;;;;;;5072529;28;20353;-85
2022/06/13 18:07:32;;;;;;;4.85;1.90;;;19.20;56.50;;;;;;5069377;28;20067;-84
2022/06/13 18:10:22;;;;;;;3.20;1.50;;;19.10;56.40;;;;;;5070736;28;20059;-85
2022/06/13 18:13:09;;;;;;;4.50;1.83;;;19.00;55.10;;;;;;5067778;28;20377;-85
2022/06/13 18:15:59;;;;;;;5.18;1.85;;;19.00;54.90;;;;;;5069046;28;20450;-84
2022/06/13 18:18:48;;;;;;;5.50;2.15;;;19.00;57.50;;;;;;5074559;28;20059;-85
2022/06/13 18:21:36;;;;;;;3.50;1.83;;;18.80;55.10;;;;;;5067405;28;20362;-85
2022/06/13 18:24:24;;;;;;;6.47;1.67;;;18.80;55.60;;;;;;5070458;28;20102;-84
2022/06/13 18:27:17;;;;;;;4.95;1.70;;;18.70;56.90;;;;;;5072074;28;20350;-85
2022/06/13 18:30:10;;;;;;;2.83;1.52;;;18.60;55.50;;;;;;5070731;28;20048;-85
2022/06/13 18:32:58;;;;;;;9.68;1.90;;;18.40;56.40;;;;;;5067477;28;20044;-84
2022/06/13 18:35:46;;;;;;;4.32;2.05;;;18.30;58.20;;;;;;5070857;28;20194;-85
2022/06/13 18:42:08;;;;;;;5.55;1.98;;;18.10;57.10;;;;;;5069579;28;20033;-84
2022/06/13 18:45:07;;;;;;;6.05;2.10;;;18.10;58.50;;;;;;5062692;28;20048;-84
2022/06/13 18:47:55;;;;;;;3.85;1.45;;;18.00;58.60;;;;;;5070497;28;20051;-85
2022/06/13 18:50:45;;;;;;;4.20;1.80;;;17.90;58.60;;;;;;5056018;28;20044;-84
2022/06/13 18:53:33;;;;;;;6.93;1.60;;;17.80;57.80;;;;;;5071747;28;20056;-85
2022/06/13 18:56:21;;;;;;;4.35;1.83;;;17.70;57.80;;;;;;5067686;28;20148;-83
2022/06/13 18:59:11;;;;;;;5.03;1.90;;;17.60;59.50;;;;;;5061011;28;20045;-84
2022/06/13 19:02:00;;;;;;;6.35;2.00;;;17.50;60.10;;;;;;5069344;28;20052;-84
2022/06/13 19:04:53;;;;;;;6.10;2.08;;;17.40;61.20;;;;;;5056903;28;20056;-85
2022/06/13 19:07:47;;;;;;;7.13;2.03;;;17.30;60.00;;;;;;5065120;28;20170;-86
2022/06/13 19:10:37;;;;;;;3.75;1.38;;;17.10;59.70;;;;;;5071607;28;20052;-84
2022/06/13 19:13:31;;;;;;;10.25;2.55;;;16.90;60.50;;;;;;5072010;28;20059;-85
2022/06/13 19:16:23;;;;;;;8.68;2.15;;;16.90;62.10;;;;;;5070659;28;20057;-85
2022/06/13 19:19:18;;;;;;;7.03;2.33;;;16.80;61.00;;;;;;5064816;28;20051;-84
2022/06/13 19:22:06;;;;;;;6.32;2.03;;;16.80;61.60;;;;;;5072612;28;20083;-84
2022/06/13 19:24:54;;;;;;;4.03;1.80;;;16.80;61.60;;;;;;5073568;28;20036;-84
2022/06/13 19:27:45;;;;;;;5.10;2.08;;;16.70;62.80;;;;;;5068153;28;20040;-83
2022/06/13 19:30:35;;;;;;;5.38;1.90;;;16.80;61.90;;;;;;5067073;28;20433;-84
2022/06/13 19:33:23;;;;;;;4.25;2.00;;;16.70;64.00;;;;;;5070004;28;20055;-85
2022/06/13 19:36:11;;;;;;;4.95;1.98;;;16.60;63.90;;;;;;5066125;28;20045;-83
2022/06/13 19:39:00;;;;;;;6.95;2.50;;;16.60;63.80;;;;;;5064014;28;20045;-84
2022/06/13 19:41:50;;;;;;;5.15;1.95;;;16.40;66.10;;;;;;5075563;28;20045;-85
2022/06/13 19:44:42;;;;;;;4.20;2.13;;;16.30;64.20;;;;;;5072470;28;20094;-84